createdAt,value
2022-11-20T00:01:34.149Z,0.77
2022-11-20T00:04:02.519Z,1.58
2022-11-20T00:06:31.763Z,1.30
2022-11-20T00:09:02.580Z,1.33
2022-11-20T00:11:32.606Z,1.80
2022-11-20T00:14:02.923Z,1.45
2022-11-20T00:16:34.378Z,1.42
2022-11-20T00:19:02.132Z,1.55
2022-11-20T00:21:32.133Z,1.95
2022-11-20T00:24:00.635Z,1.35
2022-11-20T00:26:30.998Z,1.65
2022-11-20T00:29:01.279Z,1.67
2022-11-20T00:31:30.290Z,1.55
2022-11-20T00:33:58.492Z,1.55
2022-11-20T00:36:29.522Z,2.17
2022-11-20T00:39:00.628Z,0.85
2022-11-20T00:41:30.254Z,1.52
2022-11-20T00:43:58.936Z,1.77
2022-11-20T00:46:30.318Z,1.65
2022-11-20T00:48:58.567Z,1.55
2022-11-20T00:51:29.198Z,1.27
2022-11-20T00:54:00.774Z,1.73
2022-11-20T00:56:28.880Z,1.85
2022-11-20T00:58:56.890Z,2.00
2022-11-20T01:01:27.866Z,1.38
2022-11-20T01:03:59.299Z,1.55
2022-11-20T01:06:29.311Z,1.50
2022-11-20T01:09:00.938Z,2.20
2022-11-20T01:11:32.356Z,1.50
2022-11-20T01:14:01.991Z,1.25
2022-11-20T01:16:32.491Z,1.38
2022-11-20T01:19:03.820Z,1.33
2022-11-20T01:21:34.915Z,1.67
2022-11-20T01:24:05.887Z,1.52
2022-11-20T01:26:36.687Z,1.77
2022-11-20T01:29:06.350Z,1.45
2022-11-20T01:31:36.783Z,1.90
2022-11-20T01:34:08.193Z,1.95
2022-11-20T01:36:38.688Z,1.52
2022-11-20T01:39:13.575Z,2.22
2022-11-20T01:41:59.715Z,1.70
2022-11-20T01:44:50.923Z,1.77
2022-11-20T01:47:25.825Z,1.83
2022-11-20T01:50:01.501Z,1.75
2022-11-20T01:52:36.638Z,1.58
2022-11-20T01:55:11.264Z,1.73
2022-11-20T02:00:13.483Z,1.45
2022-11-20T02:02:48.479Z,1.38
2022-11-20T02:05:25.842Z,1.52
2022-11-20T02:07:58.187Z,1.52
2022-11-20T02:10:29.954Z,1.17
2022-11-20T02:13:16.384Z,1.50
2022-11-20T02:15:45.014Z,1.63
2022-11-20T02:18:17.022Z,1.10
2022-11-20T02:20:48.555Z,2.20
2022-11-20T02:23:29.379Z,1.50
2022-11-20T02:26:01.238Z,0.93
2022-11-20T02:28:29.544Z,1.33
2022-11-20T02:30:57.268Z,0.80
2022-11-20T02:33:25.127Z,1.20
2022-11-20T02:35:52.954Z,1.30
2022-11-20T02:38:21.798Z,1.00
2022-11-20T02:40:55.145Z,1.40
2022-11-20T02:43:24.910Z,0.90
2022-11-20T02:45:53.694Z,1.23
2022-11-20T02:48:21.487Z,0.93
2022-11-20T02:50:49.251Z,1.58
2022-11-20T02:53:17.004Z,1.05
2022-11-20T02:55:44.799Z,1.48
2022-11-20T02:58:12.779Z,1.92
2022-11-20T03:00:41.922Z,1.48
2022-11-20T03:03:09.715Z,1.17
2022-11-20T03:05:37.759Z,0.85
2022-11-20T03:08:05.971Z,1.33
2022-11-20T03:10:33.710Z,1.10
2022-11-20T03:13:01.452Z,1.10
2022-11-20T03:15:29.205Z,1.27
2022-11-20T03:17:58.274Z,1.42
2022-11-20T03:20:26.088Z,0.98
2022-11-20T03:22:56.116Z,0.85
2022-11-20T03:25:24.776Z,0.95
2022-11-20T03:27:52.540Z,0.80
2022-11-20T03:30:20.467Z,0.98
2022-11-20T03:32:48.279Z,1.02
2022-11-20T03:35:17.419Z,1.15
2022-11-20T03:37:46.535Z,1.58
2022-11-20T03:40:14.847Z,1.23
2022-11-20T03:42:48.695Z,1.40
2022-11-20T03:45:18.809Z,1.17
2022-11-20T03:47:48.311Z,1.00
2022-11-20T03:50:17.530Z,1.10
2022-11-20T03:52:45.330Z,1.85
2022-11-20T03:55:13.127Z,1.00
2022-11-20T03:57:40.875Z,1.67
2022-11-20T04:00:09.983Z,1.63
2022-11-20T04:02:37.682Z,1.45
2022-11-20T04:05:06.173Z,1.65
2022-11-20T04:07:37.343Z,1.00
2022-11-20T04:10:06.164Z,0.80
2022-11-20T04:12:35.384Z,0.65
2022-11-20T04:15:03.159Z,0.82
2022-11-20T04:17:30.898Z,1.38
2022-11-20T04:19:58.685Z,0.90
2022-11-20T04:22:26.455Z,1.33
2022-11-20T04:24:55.520Z,1.02
2022-11-20T04:27:23.300Z,0.65
2022-11-20T04:29:51.280Z,1.10
2022-11-20T04:32:18.996Z,1.23
2022-11-20T04:34:46.796Z,1.00
2022-11-20T04:37:14.721Z,1.30
2022-11-20T04:39:42.677Z,1.00
2022-11-20T04:42:30.958Z,0.90
2022-11-20T04:44:59.799Z,0.93
2022-11-20T04:47:27.576Z,0.80
2022-11-20T04:49:56.329Z,0.93
2022-11-20T04:52:24.048Z,1.30
2022-11-20T04:54:53.630Z,0.40
2022-11-20T04:57:22.892Z,0.65
2022-11-20T04:59:50.698Z,0.93
2022-11-20T05:02:18.866Z,0.50
2022-11-20T05:04:47.480Z,0.60
2022-11-20T05:07:15.499Z,0.57
2022-11-20T05:09:43.351Z,0.40
2022-11-20T05:12:11.302Z,0.63
2022-11-20T05:14:40.358Z,0.30
2022-11-20T05:17:08.071Z,0.30
2022-11-20T05:19:35.831Z,0.43
2022-11-20T05:22:03.579Z,0.73
2022-11-20T05:24:31.287Z,0.95
2022-11-20T05:26:59.084Z,0.75
2022-11-20T05:29:26.773Z,0.65
2022-11-20T05:31:55.822Z,0.77
2022-11-20T05:34:23.599Z,0.93
2022-11-20T05:36:51.298Z,0.80
2022-11-20T05:39:19.206Z,0.93
2022-11-20T05:41:47.380Z,0.70
2022-11-20T05:44:15.535Z,0.88
2022-11-20T05:46:43.263Z,0.75
2022-11-20T05:49:12.435Z,0.68
2022-11-20T05:51:40.630Z,1.00
2022-11-20T05:54:08.335Z,0.50
2022-11-20T05:56:36.747Z,0.60
2022-11-20T05:59:04.442Z,0.85
2022-11-20T06:01:32.239Z,0.50
2022-11-20T06:04:00.035Z,0.68
2022-11-20T06:06:29.174Z,0.80
2022-11-20T06:08:59.721Z,0.88
2022-11-20T06:11:27.562Z,0.73
2022-11-20T06:13:55.315Z,0.85
2022-11-20T06:16:23.070Z,0.82
2022-11-20T06:18:50.957Z,0.63
2022-11-20T06:21:21.130Z,0.93
2022-11-20T06:23:54.179Z,0.85
2022-11-20T06:26:24.590Z,1.20
2022-11-20T06:28:56.950Z,1.15
2022-11-20T06:31:27.944Z,0.80
2022-11-20T06:33:56.035Z,1.27
2022-11-20T06:36:25.434Z,0.90
2022-11-20T06:38:54.849Z,0.55
2022-11-20T06:41:23.945Z,1.13
2022-11-20T06:43:52.130Z,0.50
2022-11-20T06:46:23.754Z,1.30
2022-11-20T06:48:52.031Z,0.70
2022-11-20T06:51:19.923Z,1.00
2022-11-20T06:53:48.524Z,1.05
2022-11-20T06:56:17.742Z,0.68
2022-11-20T06:58:45.582Z,1.13
2022-11-20T07:01:16.588Z,0.95
2022-11-20T07:03:45.272Z,0.82
2022-11-20T07:06:14.132Z,0.82
2022-11-20T07:08:41.930Z,0.75
2022-11-20T07:11:10.228Z,1.00
2022-11-20T07:13:39.331Z,0.95
2022-11-20T07:16:09.783Z,1.10
2022-11-20T07:18:38.194Z,0.68
2022-11-20T07:21:08.900Z,1.00
2022-11-20T07:23:36.886Z,0.95
2022-11-20T07:26:06.770Z,0.95
2022-11-20T07:28:35.622Z,0.80
2022-11-20T07:31:05.695Z,1.15
2022-11-20T07:33:33.445Z,0.82
2022-11-20T07:36:01.946Z,0.80
2022-11-20T07:38:30.196Z,0.90
2022-11-20T07:40:58.861Z,0.57
2022-11-20T07:43:27.031Z,0.40
2022-11-20T07:45:57.300Z,1.00
2022-11-20T07:48:27.295Z,1.00
2022-11-20T07:50:56.574Z,1.17
2022-11-20T07:53:24.593Z,0.85
2022-11-20T07:55:53.683Z,0.55
2022-11-20T07:58:21.841Z,0.30
2022-11-20T08:00:49.656Z,0.43
2022-11-20T08:03:24.131Z,1.13
2022-11-20T08:05:54.172Z,0.80
2022-11-20T08:08:22.128Z,1.35
2022-11-20T08:10:49.849Z,0.95
2022-11-20T08:13:35.277Z,1.40
2022-11-20T08:16:03.023Z,0.98
2022-11-20T08:18:32.433Z,1.27
2022-11-20T08:21:05.466Z,0.95
2022-11-20T08:23:33.498Z,1.27
2022-11-20T08:26:01.346Z,1.30
2022-11-20T08:28:29.300Z,0.93
2022-11-20T08:31:01.471Z,0.88
2022-11-20T08:33:29.891Z,0.60
2022-11-20T08:36:02.742Z,0.28
2022-11-20T08:38:31.511Z,0.70
2022-11-20T08:41:18.154Z,0.98
2022-11-20T08:43:46.199Z,0.68
2022-11-20T08:46:14.622Z,0.93
2022-11-20T08:48:42.594Z,0.80
2022-11-20T08:51:12.877Z,0.50
2022-11-20T08:53:41.368Z,0.60
2022-11-20T08:56:10.474Z,1.35
2022-11-20T08:59:01.771Z,0.90
2022-11-20T09:01:26.789Z,0.68
2022-11-20T09:03:56.635Z,0.85
2022-11-20T09:06:25.833Z,0.63
2022-11-20T09:08:54.505Z,0.65
2022-11-20T09:11:22.955Z,1.00
2022-11-20T09:13:51.432Z,1.17
2022-11-20T09:16:19.165Z,0.88
2022-11-20T09:18:46.894Z,0.65
2022-11-20T09:21:15.826Z,0.68
2022-11-20T09:23:44.904Z,0.63
2022-11-20T09:26:15.127Z,0.30
2022-11-20T09:28:43.162Z,0.40
2022-11-20T09:31:21.779Z,1.23
2022-11-20T09:33:49.563Z,1.02
2022-11-20T09:36:19.354Z,0.65
2022-11-20T09:38:49.288Z,0.75
2022-11-20T09:41:50.616Z,0.90
2022-11-20T09:44:47.875Z,0.80
2022-11-20T09:47:34.872Z,0.57
2022-11-20T09:50:25.680Z,0.93
2022-11-20T09:53:18.408Z,0.52
2022-11-20T09:55:48.203Z,0.70
2022-11-20T09:58:31.318Z,0.55
2022-11-20T10:01:11.342Z,0.30
2022-11-20T10:03:52.542Z,0.82
2022-11-20T10:06:26.581Z,0.68
2022-11-20T10:09:05.480Z,0.70
2022-11-20T10:11:51.465Z,0.77
2022-11-20T10:14:36.494Z,1.23
2022-11-20T10:20:03.740Z,0.52
2022-11-20T10:22:53.863Z,0.68
2022-11-20T10:25:26.310Z,0.50
2022-11-20T10:28:25.722Z,0.70
2022-11-20T10:31:02.815Z,0.88
2022-11-20T10:33:57.035Z,1.08
2022-11-20T10:36:32.528Z,0.38
2022-11-20T10:39:12.993Z,0.80
2022-11-20T10:41:43.822Z,0.70
2022-11-20T10:44:43.517Z,0.80
2022-11-20T10:47:16.915Z,1.20
2022-11-20T10:49:48.424Z,0.40
2022-11-20T10:52:33.779Z,0.70
2022-11-20T10:55:20.628Z,0.60
2022-11-20T10:57:59.244Z,0.93
2022-11-20T11:00:28.564Z,0.82
2022-11-20T11:02:58.340Z,1.08
2022-11-20T11:05:41.071Z,1.10
2022-11-20T11:08:15.631Z,0.55
2022-11-20T11:13:23.603Z,0.40
2022-11-20T11:15:53.904Z,0.52
2022-11-20T11:18:30.779Z,0.63
2022-11-20T11:21:01.536Z,0.60
2022-11-20T11:23:35.943Z,0.63
2022-11-20T11:26:07.030Z,0.47
2022-11-20T11:28:36.095Z,0.20
2022-11-20T11:31:05.246Z,0.57
2022-11-20T11:33:35.535Z,0.13
2022-11-20T11:36:18.678Z,0.30
2022-11-20T11:38:46.746Z,0.70
2022-11-20T11:41:21.304Z,0.22
2022-11-20T11:46:46.015Z,0.20
2022-11-20T11:49:19.201Z,0.25
2022-11-20T11:52:03.210Z,0.22
2022-11-20T11:54:42.611Z,0.90
2022-11-20T11:57:22.489Z,0.60
2022-11-20T12:00:03.919Z,0.57
2022-11-20T12:02:41.033Z,0.50
2022-11-20T12:05:21.494Z,0.20
2022-11-20T12:07:55.826Z,0.38
2022-11-20T12:10:39.760Z,0.40
2022-11-20T12:13:23.735Z,0.47
2022-11-20T12:15:51.663Z,0.43
2022-11-20T12:18:24.011Z,0.38
2022-11-20T12:21:11.128Z,0.45
2022-11-20T12:23:56.912Z,0.32
2022-11-20T12:26:49.074Z,0.57
2022-11-20T12:29:32.767Z,0.40
2022-11-20T12:32:38.591Z,0.50
2022-11-20T12:35:39.727Z,0.10
2022-11-20T12:38:52.062Z,0.20
2022-11-20T12:41:58.928Z,0.50
2022-11-20T12:45:12.743Z,0.68
2022-11-20T12:48:29.296Z,0.20
2022-11-20T12:51:25.256Z,0.20
2022-11-20T12:54:26.637Z,0.22
2022-11-20T12:57:08.519Z,0.77
2022-11-20T13:00:11.713Z,0.40
2022-11-20T13:03:08.975Z,0.40
2022-11-20T13:05:51.233Z,0.60
2022-11-20T13:08:26.225Z,0.60
2022-11-20T13:11:05.156Z,0.30
2022-11-20T13:13:47.487Z,0.45
2022-11-20T13:16:26.573Z,0.52
2022-11-20T13:18:54.483Z,0.43
2022-11-20T13:21:38.511Z,0.30
2022-11-20T13:24:09.296Z,0.20
2022-11-20T13:26:37.061Z,0.60
2022-11-20T13:29:13.398Z,0.40
2022-11-20T13:31:47.162Z,0.70
2022-11-20T13:34:26.763Z,0.67
2022-11-20T13:36:58.088Z,0.60
2022-11-20T13:39:28.098Z,0.40
2022-11-20T13:41:59.030Z,0.50
2022-11-20T13:44:38.613Z,0.50
2022-11-20T13:47:22.336Z,0.68
2022-11-20T13:49:50.835Z,0.60
2022-11-20T13:52:44.399Z,0.47
2022-11-20T13:55:32.366Z,0.52
2022-11-20T13:58:21.697Z,0.90
2022-11-20T14:00:58.956Z,0.50
2022-11-20T14:04:04.051Z,0.50
2022-11-20T14:06:29.245Z,0.77
2022-11-20T14:08:58.442Z,0.60
2022-11-20T14:11:30.697Z,0.65
2022-11-20T14:14:02.684Z,0.30
2022-11-20T14:16:33.267Z,0.68
2022-11-20T14:19:31.181Z,0.63
2022-11-20T14:22:20.203Z,0.60
2022-11-20T14:24:48.203Z,0.50
2022-11-20T14:27:21.613Z,0.50
2022-11-20T14:29:52.398Z,0.20
2022-11-20T14:32:28.786Z,0.38
2022-11-20T14:34:58.363Z,0.45
2022-11-20T14:37:38.180Z,0.32
2022-11-20T14:40:25.106Z,0.77
2022-11-20T14:42:54.301Z,0.50
2022-11-20T14:45:23.886Z,0.20
2022-11-20T14:47:54.359Z,0.63
2022-11-20T14:50:28.427Z,0.43
2022-11-20T14:52:58.418Z,0.40
2022-11-20T14:55:36.177Z,0.70
2022-11-20T14:58:08.802Z,0.38
2022-11-20T15:00:38.044Z,0.73
2022-11-20T15:03:18.150Z,0.57
2022-11-20T15:05:50.342Z,0.30
2022-11-20T15:08:19.075Z,0.50
2022-11-20T15:10:52.666Z,0.32
2022-11-20T15:13:31.129Z,0.32
2022-11-20T15:16:02.176Z,0.55
2022-11-20T15:18:34.696Z,0.40
2022-11-20T15:21:08.236Z,0.32
2022-11-20T15:23:36.576Z,0.80
2022-11-20T15:26:06.912Z,0.30
2022-11-20T15:28:39.982Z,0.57
2022-11-20T15:31:08.540Z,0.65
2022-11-20T15:33:36.363Z,0.70
2022-11-20T15:36:05.011Z,0.77
2022-11-20T15:38:32.830Z,0.40
2022-11-20T15:41:00.614Z,0.77
2022-11-20T15:43:28.411Z,1.02
2022-11-20T15:46:02.625Z,0.45
2022-11-20T15:48:37.518Z,1.00
2022-11-20T15:51:19.473Z,0.60
2022-11-20T15:53:47.195Z,0.60
2022-11-20T15:56:16.465Z,0.47
2022-11-20T15:58:44.261Z,0.70
2022-11-20T16:01:16.967Z,0.60
2022-11-20T16:03:45.538Z,0.50
2022-11-20T16:06:14.269Z,1.08
2022-11-20T16:08:42.058Z,0.88
2022-11-20T16:11:14.210Z,0.60
2022-11-20T16:14:00.548Z,2.05
2022-11-20T16:16:34.270Z,1.02
2022-11-20T16:19:02.254Z,0.53
2022-11-20T16:21:31.986Z,0.70
2022-11-20T16:24:00.709Z,0.98
2022-11-20T16:26:29.207Z,0.45
2022-11-20T16:28:57.650Z,2.30
2022-11-20T16:31:25.482Z,0.85
2022-11-20T16:33:56.507Z,0.93
2022-11-20T16:36:27.018Z,0.90
2022-11-20T16:38:56.911Z,1.25
2022-11-20T16:41:26.535Z,1.60
2022-11-20T16:43:57.988Z,0.88
2022-11-20T16:46:28.282Z,0.85
2022-11-20T16:48:59.830Z,1.00
2022-11-20T16:51:29.831Z,0.75
2022-11-20T16:53:58.366Z,0.98
2022-11-20T16:56:28.336Z,1.15
2022-11-20T16:58:59.224Z,1.02
2022-11-20T17:01:29.737Z,0.68
2022-11-20T17:04:01.568Z,0.80
2022-11-20T17:06:32.654Z,0.68
2022-11-20T17:09:00.861Z,0.65
2022-11-20T17:11:29.604Z,0.70
2022-11-20T17:13:57.656Z,0.52
2022-11-20T17:16:26.107Z,0.68
2022-11-20T17:19:01.241Z,1.30
2022-11-20T17:21:32.702Z,1.17
2022-11-20T17:24:03.226Z,0.65
2022-11-20T17:26:31.900Z,1.05
2022-11-20T17:29:02.258Z,1.08
2022-11-20T17:31:32.612Z,0.60
2022-11-20T17:34:01.954Z,0.63
2022-11-20T17:36:32.604Z,0.35
2022-11-20T17:39:01.143Z,0.57
2022-11-20T17:41:30.632Z,0.77
2022-11-20T17:44:01.679Z,0.52
2022-11-20T17:46:33.610Z,1.10
2022-11-20T17:49:02.194Z,0.98
2022-11-20T17:51:35.230Z,0.70
2022-11-20T17:54:08.228Z,1.05
2022-11-20T17:56:54.356Z,1.08
2022-11-20T17:59:23.026Z,1.02
2022-11-20T18:01:50.869Z,0.50
2022-11-20T18:04:18.805Z,1.33
2022-11-20T18:07:54.230Z,0.82
2022-11-20T18:10:22.107Z,1.08
2022-11-20T18:12:50.271Z,0.77
2022-11-20T18:15:18.102Z,0.98
2022-11-20T18:17:45.836Z,0.88
2022-11-20T18:20:32.992Z,1.02
2022-11-20T18:23:03.194Z,0.85
2022-11-20T18:25:30.946Z,0.47
2022-11-20T18:27:58.750Z,0.95
2022-11-20T18:30:26.674Z,0.63
2022-11-20T18:32:55.594Z,0.90
2022-11-20T18:35:23.301Z,0.60
2022-11-20T18:37:51.016Z,0.60
2022-11-20T18:40:20.063Z,0.40
2022-11-20T18:43:05.492Z,0.68
2022-11-20T18:45:33.261Z,0.63
2022-11-20T18:48:01.546Z,0.60
2022-11-20T18:50:29.407Z,0.63
2022-11-20T18:52:57.114Z,0.55
2022-11-20T18:55:26.191Z,1.25
2022-11-20T18:57:54.963Z,0.65
2022-11-20T19:00:22.815Z,0.30
2022-11-20T19:02:54.695Z,0.60
2022-11-20T19:05:22.748Z,0.73
2022-11-20T19:07:51.341Z,0.52
2022-11-20T19:10:20.810Z,0.38
2022-11-20T19:12:49.847Z,0.70
2022-11-20T19:15:17.735Z,0.90
2022-11-20T19:17:45.490Z,0.50
2022-11-20T19:20:13.800Z,0.63
2022-11-20T19:22:41.593Z,0.57
2022-11-20T19:25:10.417Z,0.80
2022-11-20T19:27:38.321Z,0.45
2022-11-20T19:30:09.227Z,1.30
2022-11-20T19:32:36.967Z,0.60
2022-11-20T19:35:05.516Z,0.47
2022-11-20T19:37:34.969Z,0.57
2022-11-20T19:40:04.872Z,0.40
2022-11-20T19:42:33.100Z,0.22
2022-11-20T19:45:00.812Z,1.17
2022-11-20T19:47:46.387Z,0.80
2022-11-20T19:50:17.834Z,0.47
2022-11-20T19:52:46.270Z,0.43
2022-11-20T19:55:13.991Z,0.60
2022-11-20T19:57:41.689Z,0.68
2022-11-20T20:00:12.190Z,0.20
2022-11-20T20:02:41.264Z,0.30
2022-11-20T20:05:09.539Z,0.38
2022-11-20T20:07:39.905Z,0.30
2022-11-20T20:10:10.134Z,0.45
2022-11-20T20:12:37.909Z,0.40
2022-11-20T20:15:07.757Z,0.47
2022-11-20T20:17:35.470Z,0.65
2022-11-20T20:20:05.555Z,0.30
2022-11-20T20:22:33.267Z,0.13
2022-11-20T20:25:00.978Z,0.43
2022-11-20T20:27:28.669Z,0.50
2022-11-20T20:29:56.494Z,0.55
2022-11-20T20:32:25.974Z,0.28
2022-11-20T20:34:53.693Z,0.20
2022-11-20T20:37:22.737Z,0.22
2022-11-20T20:39:50.530Z,0.70
2022-11-20T20:42:18.541Z,0.52
2022-11-20T20:45:03.870Z,0.45
2022-11-20T20:47:32.196Z,0.32
2022-11-20T20:50:00.167Z,0.63
2022-11-20T20:52:29.242Z,0.50
2022-11-20T20:54:57.208Z,0.30
2022-11-20T20:57:25.756Z,0.45
2022-11-20T20:59:53.815Z,0.70
2022-11-20T21:02:21.588Z,0.50
2022-11-20T21:04:49.873Z,0.93
2022-11-20T21:07:18.907Z,0.60
2022-11-20T21:09:47.974Z,0.35
2022-11-20T21:12:16.437Z,0.57
2022-11-20T21:14:44.165Z,0.10
2022-11-20T21:17:15.094Z,0.68
2022-11-20T21:19:43.276Z,0.60
2022-11-20T21:22:10.079Z,0.40
2022-11-20T21:24:37.870Z,0.32
2022-11-20T21:27:07.538Z,0.28
2022-11-20T21:29:35.313Z,0.50
2022-11-20T21:32:03.024Z,0.13
2022-11-20T21:34:30.754Z,0.47
2022-11-20T21:36:58.470Z,0.57
2022-11-20T21:39:26.247Z,0.20
2022-11-20T21:41:53.939Z,0.30
2022-11-20T21:44:41.068Z,0.30
2022-11-20T21:47:08.876Z,0.20
2022-11-20T21:49:36.708Z,0.73
2022-11-20T21:52:04.660Z,0.55
2022-11-20T21:54:35.569Z,0.20
2022-11-20T21:57:03.230Z,0.30
2022-11-20T21:59:32.467Z,0.30
2022-11-20T22:02:00.293Z,0.30
2022-11-20T22:04:28.282Z,0.20
2022-11-20T22:06:56.061Z,0.30
2022-11-20T22:09:24.667Z,0.68
2022-11-20T22:11:52.533Z,0.35
2022-11-20T22:14:20.310Z,0.43
2022-11-20T22:16:51.329Z,0.30
2022-11-20T22:19:20.522Z,0.50
2022-11-20T22:21:49.247Z,0.60
2022-11-20T22:24:19.238Z,0.55
2022-11-20T22:26:47.540Z,0.35
2022-11-20T22:29:17.099Z,0.30
2022-11-20T22:31:45.338Z,0.20
2022-11-20T22:34:15.520Z,0.20
2022-11-20T22:36:43.442Z,0.43
2022-11-20T22:39:11.641Z,0.30
2022-11-20T22:41:39.439Z,0.45
2022-11-20T22:44:09.431Z,0.20
2022-11-20T22:46:39.003Z,0.25
2022-11-20T22:49:09.434Z,0.38
2022-11-20T22:51:41.430Z,0.30
2022-11-20T22:54:13.859Z,0.55
2022-11-20T22:56:41.819Z,0.30
2022-11-20T22:59:09.778Z,0.43
2022-11-20T23:01:38.671Z,0.20
2022-11-20T23:04:10.750Z,0.13
2022-11-20T23:06:40.202Z,0.40
2022-11-20T23:09:09.810Z,0.57
2022-11-20T23:11:38.643Z,0.10
2022-11-20T23:14:11.781Z,0.57
2022-11-20T23:16:40.649Z,0.20
2022-11-20T23:19:11.629Z,0.20
2022-11-20T23:21:43.839Z,0.20
2022-11-20T23:24:12.492Z,0.30
2022-11-20T23:26:41.916Z,0.17
2022-11-20T23:29:09.853Z,0.28
2022-11-20T23:31:37.822Z,0.20
2022-11-20T23:34:06.217Z,0.17
2022-11-20T23:36:34.307Z,0.50
2022-11-20T23:39:03.404Z,0.20
2022-11-20T23:41:31.147Z,0.10
2022-11-20T23:43:58.887Z,0.28
2022-11-20T23:46:26.635Z,0.10
2022-11-20T23:48:54.329Z,0.13
2022-11-20T23:51:22.009Z,0.20
2022-11-20T23:53:49.768Z,0.13
2022-11-20T23:56:18.899Z,0.20
2022-11-20T23:58:46.621Z,0.10
